createdAt,value
2019-04-29T00:00:35.452Z,4.45
2019-04-29T00:02:39.581Z,5.25
2019-04-29T00:04:43.776Z,5.70
2019-04-29T00:06:47.898Z,4.80
2019-04-29T00:08:52.099Z,5.45
2019-04-29T00:10:56.216Z,4.60
2019-04-29T00:13:00.939Z,4.30
2019-04-29T00:15:26.545Z,4.37
2019-04-29T00:17:35.260Z,4.87
2019-04-29T00:19:49.934Z,4.90
2019-04-29T00:21:53.824Z,4.92
2019-04-29T00:24:04.006Z,4.70
2019-04-29T00:26:03.645Z,3.80
2019-04-29T00:28:07.408Z,3.65
2019-04-29T00:30:13.462Z,3.87
2019-04-29T00:32:17.292Z,3.47
2019-04-29T00:34:21.468Z,3.42
2019-04-29T00:36:27.320Z,3.75
2019-04-29T00:38:48.417Z,3.72
2019-04-29T00:41:11.668Z,2.92
2019-04-29T00:43:33.598Z,3.50
2019-04-29T00:45:37.719Z,3.60
2019-04-29T00:47:41.538Z,3.40
2019-04-29T00:49:45.374Z,3.25
2019-04-29T00:51:49.545Z,3.40
2019-04-29T00:53:55.162Z,2.58
2019-04-29T00:56:00.969Z,2.27
2019-04-29T00:58:05.258Z,2.20
2019-04-29T01:00:12.168Z,2.60
2019-04-29T01:02:16.324Z,2.30
2019-04-29T01:04:20.563Z,1.92
2019-04-29T01:06:24.676Z,2.27
2019-04-29T01:08:28.892Z,2.70
2019-04-29T01:10:32.775Z,2.22
2019-04-29T01:12:37.710Z,2.40
2019-04-29T01:14:41.824Z,2.70
2019-04-29T01:16:45.942Z,3.72
2019-04-29T01:18:50.128Z,2.52
2019-04-29T01:20:54.248Z,2.98
2019-04-29T01:22:58.460Z,2.67
2019-04-29T01:25:02.572Z,2.50
2019-04-29T01:27:17.487Z,2.70
2019-04-29T01:29:22.952Z,2.40
2019-04-29T01:31:28.714Z,2.10
2019-04-29T01:33:32.944Z,2.50
2019-04-29T01:35:37.049Z,2.17
2019-04-29T01:37:42.294Z,2.10
2019-04-29T01:39:48.132Z,2.05
2019-04-29T01:42:12.324Z,1.98
2019-04-29T01:44:21.024Z,2.02
2019-04-29T01:46:24.876Z,1.98
2019-04-29T01:48:29.050Z,2.27
2019-04-29T01:50:33.271Z,1.80
2019-04-29T01:52:37.376Z,2.25
2019-04-29T01:54:41.485Z,2.33
2019-04-29T01:56:45.596Z,2.47
2019-04-29T01:58:49.714Z,2.42
2019-04-29T02:00:53.536Z,3.22
2019-04-29T02:02:57.350Z,3.25
2019-04-29T02:05:01.170Z,2.58
2019-04-29T02:07:05.073Z,2.52
2019-04-29T02:09:10.620Z,2.02
2019-04-29T02:11:14.878Z,2.08
2019-04-29T02:13:19.098Z,1.80
2019-04-29T02:15:23.010Z,1.85
2019-04-29T02:17:27.200Z,2.15
2019-04-29T02:19:31.320Z,1.77
2019-04-29T02:21:35.151Z,1.57
2019-04-29T02:23:52.855Z,2.50
2019-04-29T02:25:56.656Z,1.85
2019-04-29T02:28:00.792Z,1.98
2019-04-29T02:30:06.914Z,1.80
2019-04-29T02:32:11.024Z,2.30
2019-04-29T02:34:15.145Z,3.12
2019-04-29T02:36:18.979Z,2.50
2019-04-29T02:38:27.469Z,2.55
2019-04-29T02:40:42.151Z,2.80
2019-04-29T02:42:50.250Z,2.30
2019-04-29T02:44:55.146Z,1.82
2019-04-29T02:46:59.052Z,2.37
2019-04-29T02:49:03.689Z,2.00
2019-04-29T02:51:07.803Z,1.77
2019-04-29T02:53:11.997Z,2.40
2019-04-29T02:55:17.854Z,2.30
2019-04-29T02:57:38.661Z,2.02
2019-04-29T02:59:53.206Z,1.62
2019-04-29T03:02:08.277Z,2.60
2019-04-29T03:04:19.334Z,1.87
2019-04-29T03:06:23.166Z,2.10
2019-04-29T03:08:27.366Z,1.90
2019-04-29T03:10:31.691Z,1.87
2019-04-29T03:12:36.414Z,2.65
2019-04-29T03:14:40.512Z,3.12
2019-04-29T03:16:44.751Z,2.40
2019-04-29T03:18:50.686Z,2.00
2019-04-29T03:21:08.601Z,2.12
2019-04-29T03:23:17.150Z,1.67
2019-04-29T03:25:20.958Z,1.40
2019-04-29T03:27:24.810Z,1.20
2019-04-29T03:29:29.048Z,1.57
2019-04-29T03:31:39.017Z,1.37
2019-04-29T03:33:39.131Z,1.95
2019-04-29T03:35:43.318Z,2.10
2019-04-29T03:37:47.172Z,1.87
2019-04-29T03:39:51.347Z,1.92
2019-04-29T03:41:55.172Z,1.98
2019-04-29T03:43:59.358Z,1.62
2019-04-29T03:46:03.561Z,2.42
2019-04-29T03:48:07.690Z,1.82
2019-04-29T03:50:11.558Z,2.22
2019-04-29T03:52:15.708Z,2.20
2019-04-29T03:54:19.911Z,2.10
2019-04-29T03:56:24.120Z,2.50
2019-04-29T03:58:27.927Z,1.82
2019-04-29T04:00:32.140Z,2.10
2019-04-29T04:02:54.261Z,2.52
2019-04-29T04:05:00.054Z,2.45
2019-04-29T04:07:22.154Z,2.77
2019-04-29T04:09:27.643Z,2.12
2019-04-29T04:11:31.461Z,2.00
2019-04-29T04:13:35.481Z,2.40
2019-04-29T04:15:39.326Z,2.70
2019-04-29T04:17:45.160Z,2.33
2019-04-29T04:19:49.378Z,2.12
2019-04-29T04:21:53.499Z,2.72
2019-04-29T04:23:58.292Z,2.80
2019-04-29T04:26:02.520Z,3.42
2019-04-29T04:28:06.397Z,3.12
2019-04-29T04:30:10.652Z,3.87
2019-04-29T04:32:14.839Z,3.22
2019-04-29T04:34:18.960Z,3.30
2019-04-29T04:36:23.071Z,3.02
2019-04-29T04:38:27.301Z,3.90
2019-04-29T04:40:33.106Z,4.72
2019-04-29T04:42:37.238Z,4.40
2019-04-29T04:44:50.394Z,4.30
2019-04-29T04:46:54.276Z,5.00
2019-04-29T04:48:58.482Z,3.58
2019-04-29T04:51:02.296Z,3.90
2019-04-29T04:53:06.408Z,3.55
2019-04-29T04:55:11.436Z,3.25
2019-04-29T04:57:15.533Z,2.92
2019-04-29T04:59:19.649Z,4.40
2019-04-29T05:01:23.760Z,4.85
2019-04-29T05:03:27.575Z,4.58
2019-04-29T05:05:31.863Z,3.70
2019-04-29T05:07:35.977Z,3.62
2019-04-29T05:09:40.102Z,4.30
2019-04-29T05:11:43.945Z,7.42
2019-04-29T05:13:47.787Z,5.35
2019-04-29T05:15:51.921Z,4.60
2019-04-29T05:17:55.723Z,3.58
2019-04-29T05:19:59.616Z,4.20
2019-04-29T05:22:03.746Z,4.17
2019-04-29T05:24:08.050Z,4.05
2019-04-29T05:26:12.162Z,4.20
2019-04-29T05:28:16.273Z,5.90
2019-04-29T05:30:20.380Z,6.50
2019-04-29T05:32:24.505Z,4.28
2019-04-29T05:34:29.956Z,3.60
2019-04-29T05:36:51.874Z,3.00
2019-04-29T05:39:00.484Z,2.70
2019-04-29T05:41:04.697Z,3.17
2019-04-29T05:43:10.709Z,4.25
2019-04-29T05:45:16.504Z,3.85
2019-04-29T05:47:37.021Z,6.42
2019-04-29T05:49:44.955Z,8.35
2019-04-29T05:51:57.454Z,11.22
2019-04-29T05:54:03.677Z,12.13
2019-04-29T05:56:07.869Z,10.15
2019-04-29T05:58:11.987Z,5.53
2019-04-29T06:00:18.713Z,5.55
2019-04-29T06:02:24.063Z,5.35
2019-04-29T06:04:28.845Z,5.12
2019-04-29T06:06:32.713Z,5.33
2019-04-29T06:08:39.316Z,5.00
2019-04-29T06:10:42.374Z,5.40
2019-04-29T06:12:46.208Z,4.37
2019-04-29T06:14:50.063Z,4.60
2019-04-29T06:16:57.606Z,3.67
2019-04-29T06:19:01.939Z,3.72
2019-04-29T06:21:09.216Z,4.45
2019-04-29T06:23:11.535Z,3.87
2019-04-29T06:25:15.652Z,4.17
2019-04-29T06:27:19.759Z,3.35
2019-04-29T06:29:23.883Z,4.50
2019-04-29T06:31:27.972Z,4.10
2019-04-29T06:33:32.101Z,3.85
2019-04-29T06:35:36.298Z,4.00
2019-04-29T06:37:40.425Z,4.67
2019-04-29T06:39:44.263Z,5.97
2019-04-29T06:41:48.083Z,3.45
2019-04-29T06:43:54.183Z,3.92
2019-04-29T06:45:57.783Z,3.55
2019-04-29T06:48:01.883Z,3.70
2019-04-29T06:50:09.474Z,5.20
2019-04-29T06:52:13.357Z,5.78
2019-04-29T06:54:17.190Z,5.08
2019-04-29T06:56:21.013Z,4.47
2019-04-29T06:58:25.203Z,4.10
2019-04-29T07:00:29.012Z,5.07
2019-04-29T07:02:33.217Z,4.65
2019-04-29T07:04:39.586Z,5.37
2019-04-29T07:06:56.303Z,3.80
2019-04-29T07:08:48.409Z,5.10
2019-04-29T07:10:55.855Z,6.10
2019-04-29T07:12:57.785Z,6.37
2019-04-29T07:15:01.320Z,5.20
2019-04-29T07:17:06.097Z,6.00
2019-04-29T07:19:10.447Z,8.60
2019-04-29T07:21:14.299Z,6.57
2019-04-29T07:23:17.833Z,11.83
2019-04-29T07:25:24.712Z,8.67
2019-04-29T07:27:26.939Z,6.30
2019-04-29T07:29:32.511Z,5.60
2019-04-29T07:31:36.090Z,5.03
2019-04-29T07:33:40.005Z,4.27
2019-04-29T07:35:47.953Z,4.20
2019-04-29T07:37:49.163Z,4.33
2019-04-29T07:39:52.712Z,4.77
2019-04-29T07:41:56.233Z,6.53
2019-04-29T07:44:00.137Z,4.17
2019-04-29T07:46:08.553Z,3.27
2019-04-29T07:48:12.152Z,2.87
2019-04-29T07:50:16.378Z,2.83
2019-04-29T07:52:20.459Z,3.33
2019-04-29T07:54:24.283Z,2.43
2019-04-29T07:56:28.071Z,2.33
2019-04-29T07:58:31.969Z,7.37
2019-04-29T08:00:36.690Z,4.00
2019-04-29T08:02:40.505Z,3.87
2019-04-29T08:04:44.402Z,7.27
2019-04-29T08:06:48.635Z,2.10
2019-04-29T08:08:55.128Z,2.17
2019-04-29T08:10:58.281Z,3.83
2019-04-29T08:13:02.176Z,1.63
2019-04-29T08:15:08.635Z,2.07
2019-04-29T08:17:12.579Z,1.60
2019-04-29T08:19:16.464Z,1.70
2019-04-29T08:21:20.264Z,1.70
2019-04-29T08:23:23.800Z,1.47
2019-04-29T08:25:27.666Z,2.00
2019-04-29T08:27:39.756Z,1.83
2019-04-29T08:29:37.427Z,1.40
2019-04-29T08:31:41.306Z,2.27
2019-04-29T08:33:46.673Z,1.33
2019-04-29T08:35:50.779Z,1.70
2019-04-29T08:37:54.565Z,1.77
2019-04-29T08:40:14.743Z,2.10
2019-04-29T08:42:08.968Z,2.13
2019-04-29T08:44:29.332Z,2.43
2019-04-29T08:46:34.880Z,1.83
2019-04-29T08:48:38.798Z,2.30
2019-04-29T08:50:42.344Z,2.70
2019-04-29T08:52:45.877Z,2.77
2019-04-29T08:54:50.630Z,47.47
2019-04-29T08:57:03.124Z,27.00
2019-04-29T08:59:00.881Z,4.93
2019-04-29T09:01:04.790Z,3.37
2019-04-29T09:03:08.303Z,8.93
2019-04-29T09:05:13.223Z,16.23
2019-04-29T09:07:17.545Z,6.40
2019-04-29T09:09:29.252Z,4.43
2019-04-29T09:11:27.881Z,3.43
2019-04-29T09:13:31.687Z,4.33
2019-04-29T09:15:35.587Z,3.97
2019-04-29T09:17:39.395Z,5.10
2019-04-29T09:19:42.903Z,3.53
2019-04-29T09:21:48.429Z,3.90
2019-04-29T09:23:52.431Z,3.70
2019-04-29T09:26:02.856Z,5.43
2019-04-29T09:28:15.092Z,3.60
2019-04-29T09:30:17.566Z,4.10
2019-04-29T09:32:21.383Z,3.90
2019-04-29T09:34:26.511Z,3.43
2019-04-29T09:36:30.124Z,3.40
2019-04-29T09:38:36.926Z,6.00
2019-04-29T09:40:54.561Z,3.97
2019-04-29T09:42:57.500Z,4.57
2019-04-29T09:45:19.520Z,2.67
2019-04-29T09:47:21.072Z,3.20
2019-04-29T09:49:24.977Z,3.30
2019-04-29T09:51:29.746Z,2.50
2019-04-29T09:53:33.676Z,2.93
2019-04-29T09:55:40.126Z,3.00
2019-04-29T09:57:42.758Z,3.40
2019-04-29T09:59:48.305Z,2.47
2019-04-29T10:02:03.350Z,3.10
2019-04-29T10:04:08.541Z,3.47
2019-04-29T10:06:19.775Z,3.23
2019-04-29T10:08:23.666Z,2.93
2019-04-29T10:10:27.880Z,3.33
2019-04-29T10:12:31.402Z,4.17
2019-04-29T10:14:35.495Z,3.27
2019-04-29T10:16:53.130Z,2.87
2019-04-29T10:19:05.171Z,3.10
2019-04-29T10:21:16.656Z,3.10
2019-04-29T10:23:19.992Z,3.00
2019-04-29T10:25:23.616Z,3.03
2019-04-29T10:27:27.497Z,2.80
2019-04-29T10:29:32.852Z,2.50
2019-04-29T10:31:37.159Z,2.40
2019-04-29T10:33:41.067Z,2.77
2019-04-29T10:35:45.227Z,2.90
2019-04-29T10:37:50.090Z,3.83
2019-04-29T10:40:11.826Z,3.53
2019-04-29T10:42:17.230Z,3.00
2019-04-29T10:44:24.819Z,3.10
2019-04-29T10:46:46.986Z,2.50
2019-04-29T10:48:53.114Z,2.70
2019-04-29T10:50:58.029Z,3.70
2019-04-29T10:53:02.748Z,3.83
2019-04-29T10:55:07.428Z,3.53
2019-04-29T10:57:14.810Z,3.50
2019-04-29T10:59:17.376Z,3.30
2019-04-29T11:01:29.572Z,2.70
2019-04-29T11:03:34.301Z,2.23
2019-04-29T11:05:44.658Z,2.50
2019-04-29T11:07:46.889Z,3.43
2019-04-29T11:09:55.030Z,2.70
2019-04-29T11:11:58.644Z,2.90
2019-04-29T11:14:03.169Z,2.70
2019-04-29T11:16:12.702Z,2.70
2019-04-29T11:18:18.083Z,3.13
2019-04-29T11:20:22.127Z,2.70
2019-04-29T11:22:34.004Z,2.60
2019-04-29T11:24:42.140Z,2.70
2019-04-29T11:26:50.340Z,2.70
2019-04-29T11:28:54.829Z,3.30
2019-04-29T11:30:58.875Z,2.90
2019-04-29T11:33:04.722Z,2.87
2019-04-29T11:35:14.177Z,2.57
2019-04-29T11:37:19.510Z,2.80
2019-04-29T11:39:23.488Z,2.47
2019-04-29T11:41:30.617Z,2.97
2019-04-29T11:43:34.894Z,2.50
2019-04-29T11:45:40.402Z,2.90
2019-04-29T11:47:44.550Z,2.67
2019-04-29T11:49:52.863Z,2.93
2019-04-29T11:52:09.199Z,2.90
2019-04-29T11:54:01.998Z,2.73
2019-04-29T11:56:05.914Z,2.77
2019-04-29T11:58:11.083Z,3.10
2019-04-29T12:00:35.316Z,3.20
2019-04-29T12:02:45.936Z,2.63
2019-04-29T12:04:56.974Z,2.70
2019-04-29T12:07:00.573Z,2.50
2019-04-29T12:09:06.755Z,2.90
2019-04-29T12:11:10.533Z,2.57
2019-04-29T12:13:18.962Z,2.40
2019-04-29T12:15:31.533Z,2.73
2019-04-29T12:17:39.424Z,3.10
2019-04-29T12:19:44.582Z,3.27
2019-04-29T12:21:48.904Z,2.70
2019-04-29T12:23:53.255Z,2.27
2019-04-29T12:25:58.709Z,2.90
2019-04-29T12:28:18.162Z,3.73
2019-04-29T12:30:10.782Z,2.80
2019-04-29T12:32:20.681Z,2.70
2019-04-29T12:34:26.817Z,2.10
2019-04-29T12:36:30.512Z,2.57
2019-04-29T12:38:48.821Z,2.03
2019-04-29T12:41:20.230Z,2.63
2019-04-29T12:43:32.330Z,2.60
2019-04-29T12:45:37.791Z,2.40
2019-04-29T12:47:43.334Z,2.30
2019-04-29T12:49:48.192Z,2.40
2019-04-29T12:51:51.848Z,2.50
2019-04-29T12:53:55.654Z,2.53
2019-04-29T12:55:59.176Z,2.50
2019-04-29T12:58:02.712Z,2.20
2019-04-29T13:00:09.175Z,2.60
2019-04-29T13:02:31.258Z,2.63
2019-04-29T13:04:36.436Z,2.20
2019-04-29T13:06:47.344Z,1.87
2019-04-29T13:08:52.526Z,2.50
2019-04-29T13:10:58.042Z,2.13
2019-04-29T13:13:01.628Z,2.30
2019-04-29T13:15:12.534Z,2.27
2019-04-29T13:17:15.530Z,2.00
2019-04-29T13:19:25.221Z,2.33
2019-04-29T13:21:26.370Z,2.20
2019-04-29T13:23:36.178Z,2.10
2019-04-29T13:25:35.932Z,2.20
2019-04-29T13:27:39.845Z,2.03
2019-04-29T13:29:43.412Z,2.10
2019-04-29T13:31:47.222Z,1.70
2019-04-29T13:33:53.000Z,1.90
2019-04-29T13:35:56.891Z,1.70
2019-04-29T13:38:00.686Z,1.67
2019-04-29T13:40:07.016Z,2.60
2019-04-29T13:42:15.678Z,2.10
2019-04-29T13:44:19.503Z,1.60
2019-04-29T13:46:23.460Z,1.60
2019-04-29T13:48:56.735Z,1.33
2019-04-29T13:50:54.662Z,1.60
2019-04-29T13:52:58.208Z,1.60
2019-04-29T13:55:16.587Z,1.40
2019-04-29T13:57:13.083Z,1.90
2019-04-29T13:59:15.540Z,1.90
2019-04-29T14:01:27.775Z,1.97
2019-04-29T14:03:28.206Z,2.47
2019-04-29T14:05:36.285Z,1.80
2019-04-29T14:07:39.830Z,2.23
2019-04-29T14:09:43.706Z,2.10
2019-04-29T14:12:00.968Z,2.10
2019-04-29T14:13:53.159Z,1.97
2019-04-29T14:15:57.062Z,1.77
2019-04-29T14:18:00.970Z,2.00
2019-04-29T14:20:10.886Z,1.67
2019-04-29T14:22:21.875Z,1.83
2019-04-29T14:24:17.532Z,1.93
2019-04-29T14:26:21.083Z,1.80
2019-04-29T14:28:24.628Z,2.00
2019-04-29T14:30:38.631Z,1.80
2019-04-29T14:32:38.042Z,1.70
2019-04-29T14:34:44.511Z,1.77
2019-04-29T14:36:48.415Z,1.80
2019-04-29T14:38:52.330Z,1.47
2019-04-29T14:40:55.849Z,1.37
2019-04-29T14:43:26.867Z,1.70
2019-04-29T14:45:33.251Z,1.67
2019-04-29T14:47:41.946Z,1.70
2019-04-29T14:49:47.131Z,1.73
2019-04-29T14:51:50.653Z,1.60
2019-04-29T14:53:56.807Z,2.10
2019-04-29T14:56:00.218Z,1.70
2019-04-29T14:58:03.738Z,2.03
2019-04-29T15:00:10.278Z,1.63
2019-04-29T15:02:19.125Z,1.70
2019-04-29T15:04:24.628Z,1.53
2019-04-29T15:06:29.153Z,1.50
2019-04-29T15:08:36.200Z,1.90
2019-04-29T15:10:39.090Z,1.90
2019-04-29T15:12:51.942Z,1.53
2019-04-29T15:14:54.734Z,1.73
2019-04-29T15:17:16.131Z,1.50
2019-04-29T15:19:37.074Z,1.60
2019-04-29T15:21:48.777Z,2.60
2019-04-29T15:23:52.437Z,2.40
2019-04-29T15:25:56.332Z,2.33
2019-04-29T15:28:00.269Z,3.03
2019-04-29T15:30:09.230Z,3.03
2019-04-29T15:32:13.066Z,3.30
2019-04-29T15:34:16.985Z,3.50
2019-04-29T15:36:20.880Z,3.63
2019-04-29T15:38:24.684Z,4.03
2019-04-29T15:40:28.750Z,4.27
2019-04-29T15:42:32.879Z,4.10
2019-04-29T15:44:36.819Z,4.50
2019-04-29T15:46:47.430Z,4.23
2019-04-29T15:48:46.362Z,4.27
2019-04-29T15:50:49.882Z,3.97
2019-04-29T15:52:53.762Z,3.80
2019-04-29T15:54:57.676Z,3.77
2019-04-29T15:57:03.564Z,3.87
2019-04-29T15:59:08.814Z,4.70
2019-04-29T16:01:17.524Z,3.90
2019-04-29T16:03:19.549Z,4.00
2019-04-29T16:05:33.986Z,4.40
2019-04-29T16:07:51.528Z,4.17
2019-04-29T16:10:20.653Z,3.93
2019-04-29T16:12:21.341Z,4.17
2019-04-29T16:14:25.564Z,4.07
2019-04-29T16:16:29.470Z,4.17
2019-04-29T16:18:33.359Z,3.90
2019-04-29T16:20:37.987Z,4.20
2019-04-29T16:22:41.886Z,3.87
2019-04-29T16:24:45.792Z,4.03
2019-04-29T16:26:53.559Z,4.00
2019-04-29T16:28:55.350Z,5.00
2019-04-29T16:31:04.914Z,4.97
2019-04-29T16:33:13.405Z,4.97
2019-04-29T16:35:10.647Z,5.03
2019-04-29T16:37:19.223Z,4.80
2019-04-29T16:39:20.297Z,5.00
2019-04-29T16:41:28.472Z,5.03
2019-04-29T16:43:33.933Z,4.43
2019-04-29T16:45:44.086Z,4.57
2019-04-29T16:47:48.780Z,5.50
2019-04-29T16:49:52.314Z,5.80
2019-04-29T16:51:56.233Z,5.90
2019-04-29T16:54:00.144Z,6.07
2019-04-29T16:56:03.655Z,7.47
2019-04-29T16:58:16.946Z,6.57
2019-04-29T17:00:14.911Z,8.30
2019-04-29T17:02:19.879Z,9.50
2019-04-29T17:04:23.387Z,8.80
2019-04-29T17:06:27.279Z,8.40
2019-04-29T17:08:32.966Z,8.40
2019-04-29T17:10:50.834Z,8.73
2019-04-29T17:12:54.623Z,8.00
2019-04-29T17:15:23.545Z,8.77
2019-04-29T17:17:05.451Z,8.13
2019-04-29T17:19:08.996Z,8.07
2019-04-29T17:21:13.123Z,8.67
2019-04-29T17:23:23.912Z,8.30
2019-04-29T17:25:22.807Z,7.67
2019-04-29T17:27:35.178Z,8.03
2019-04-29T17:29:45.282Z,9.05
2019-04-29T17:32:02.777Z,9.85
2019-04-29T17:34:54.815Z,10.30
2019-04-29T17:36:26.234Z,9.93
2019-04-29T17:38:29.761Z,10.53
2019-04-29T17:40:34.948Z,10.20
2019-04-29T17:42:40.511Z,10.00
2019-04-29T17:44:45.125Z,10.23
2019-04-29T17:46:56.089Z,11.17
2019-04-29T17:49:04.183Z,11.17
2019-04-29T17:51:08.998Z,10.40
2019-04-29T17:53:15.279Z,11.77
2019-04-29T17:55:25.028Z,10.50
2019-04-29T17:57:39.701Z,11.03
2019-04-29T17:59:55.951Z,12.10
2019-04-29T18:02:01.225Z,13.43
2019-04-29T18:04:23.374Z,13.70
2019-04-29T18:06:34.547Z,14.07
2019-04-29T18:08:48.713Z,13.53
2019-04-29T18:10:55.720Z,14.43
2019-04-29T18:12:59.683Z,14.67
2019-04-29T18:15:03.676Z,16.03
2019-04-29T18:17:07.787Z,16.10
2019-04-29T18:19:30.822Z,15.30
2019-04-29T18:21:37.268Z,16.37
2019-04-29T18:23:47.145Z,14.97
2019-04-29T18:26:01.719Z,14.63
2019-04-29T18:28:07.354Z,15.63
2019-04-29T18:30:12.203Z,16.30
2019-04-29T18:32:17.001Z,16.77
2019-04-29T18:34:20.914Z,15.50
2019-04-29T18:36:26.618Z,15.40
2019-04-29T18:38:30.053Z,17.03
2019-04-29T18:40:35.512Z,17.50
2019-04-29T18:42:43.282Z,18.60
2019-04-29T18:44:56.524Z,19.73
2019-04-29T18:46:53.848Z,18.53
2019-04-29T18:49:03.114Z,18.13
2019-04-29T18:51:01.790Z,18.23
2019-04-29T18:53:06.936Z,16.80
2019-04-29T18:55:10.915Z,18.83
2019-04-29T18:57:27.101Z,19.10
2019-04-29T18:59:21.323Z,21.00
2019-04-29T19:01:28.905Z,19.90
2019-04-29T19:03:33.233Z,18.67
2019-04-29T19:05:39.359Z,17.90
2019-04-29T19:07:53.143Z,16.40
2019-04-29T19:09:48.505Z,18.20
2019-04-29T19:11:53.205Z,17.17
2019-04-29T19:13:57.628Z,24.03
2019-04-29T19:16:09.356Z,21.60
2019-04-29T19:18:07.961Z,18.67
2019-04-29T19:20:18.294Z,20.00
2019-04-29T19:22:19.298Z,20.33
2019-04-29T19:24:22.865Z,20.03
2019-04-29T19:26:27.651Z,20.77
2019-04-29T19:28:32.514Z,21.40
2019-04-29T19:30:36.579Z,22.20
2019-04-29T19:32:40.461Z,21.20
2019-04-29T19:34:45.921Z,21.80
2019-04-29T19:36:50.729Z,22.50
2019-04-29T19:38:55.334Z,21.70
2019-04-29T19:40:59.163Z,21.70
2019-04-29T19:43:02.695Z,22.27
2019-04-29T19:45:13.203Z,22.53
2019-04-29T19:47:15.236Z,25.37
2019-04-29T19:49:19.081Z,25.03
2019-04-29T19:51:23.257Z,24.73
2019-04-29T19:53:27.094Z,25.33
2019-04-29T19:55:33.166Z,24.80
2019-04-29T19:57:42.375Z,25.33
2019-04-29T19:59:51.473Z,25.00
2019-04-29T20:01:51.916Z,26.93
2019-04-29T20:03:57.365Z,27.90
2019-04-29T20:06:08.865Z,31.90
2019-04-29T20:08:21.447Z,30.53
2019-04-29T20:10:18.221Z,32.27
2019-04-29T20:12:24.881Z,31.97
2019-04-29T20:14:33.516Z,31.53
2019-04-29T20:16:57.327Z,33.10
2019-04-29T20:19:12.199Z,34.10
2019-04-29T20:21:20.519Z,31.77
2019-04-29T20:23:24.828Z,32.93
2019-04-29T20:25:29.785Z,33.27
2019-04-29T20:27:30.842Z,32.77
2019-04-29T20:29:36.439Z,31.73
2019-04-29T20:31:39.167Z,29.67
2019-04-29T20:33:46.979Z,31.07
2019-04-29T20:35:49.991Z,32.13
2019-04-29T20:37:56.703Z,32.27
2019-04-29T20:40:00.796Z,29.00
2019-04-29T20:42:06.300Z,32.80
2019-04-29T20:44:10.357Z,31.60
2019-04-29T20:46:15.951Z,32.87
2019-04-29T20:48:19.978Z,32.23
2019-04-29T20:50:25.084Z,33.17
2019-04-29T20:52:36.874Z,32.63
2019-04-29T20:54:40.835Z,33.17
2019-04-29T20:56:47.008Z,32.97
2019-04-29T20:58:50.437Z,32.60
2019-04-29T21:00:58.248Z,36.63
2019-04-29T21:03:04.274Z,36.27
2019-04-29T21:05:09.694Z,33.43
2019-04-29T21:07:12.250Z,31.37
2019-04-29T21:09:16.763Z,32.70
2019-04-29T21:11:28.456Z,32.20
2019-04-29T21:13:43.328Z,32.13
2019-04-29T21:15:53.239Z,30.50
2019-04-29T21:17:58.611Z,30.93
2019-04-29T21:20:02.534Z,32.97
2019-04-29T21:22:06.433Z,30.47
2019-04-29T21:24:14.001Z,33.37
2019-04-29T21:26:16.057Z,34.13
2019-04-29T21:28:19.888Z,33.33
2019-04-29T21:30:27.204Z,31.37
2019-04-29T21:32:30.547Z,33.17
2019-04-29T21:34:45.236Z,30.90
2019-04-29T21:36:50.763Z,33.37
2019-04-29T21:39:01.724Z,30.47
2019-04-29T21:41:11.384Z,34.37
2019-04-29T21:43:17.734Z,33.80
2019-04-29T21:45:21.739Z,34.30
2019-04-29T21:47:28.242Z,32.83
2019-04-29T21:49:42.450Z,31.97
2019-04-29T21:51:36.571Z,32.27
2019-04-29T21:53:40.486Z,29.90
2019-04-29T21:55:45.640Z,29.53
2019-04-29T21:57:49.793Z,32.03
2019-04-29T21:59:55.432Z,30.10
2019-04-29T22:01:59.307Z,28.03
2019-04-29T22:04:03.319Z,27.70
2019-04-29T22:06:07.242Z,26.40
2019-04-29T22:08:10.814Z,25.50
2019-04-29T22:10:15.221Z,25.97
2019-04-29T22:12:20.440Z,24.87
2019-04-29T22:14:26.624Z,26.07
2019-04-29T22:16:31.060Z,25.80
2019-04-29T22:18:35.590Z,25.30
2019-04-29T22:20:42.204Z,24.43
2019-04-29T22:22:45.587Z,25.10
2019-04-29T22:24:51.357Z,26.62
2019-04-29T22:26:56.484Z,25.48
2019-04-29T22:29:03.433Z,25.13
2019-04-29T22:31:07.776Z,25.40
2019-04-29T22:33:11.645Z,26.00
2019-04-29T22:35:16.525Z,25.53
2019-04-29T22:37:20.919Z,25.00
2019-04-29T22:39:26.834Z,26.17
2019-04-29T22:41:31.704Z,26.00
2019-04-29T22:43:46.190Z,27.33
2019-04-29T22:45:50.018Z,26.93
2019-04-29T22:47:55.734Z,25.50
2019-04-29T22:50:03.208Z,26.30
2019-04-29T22:52:05.641Z,27.07
2019-04-29T22:54:09.194Z,26.93
2019-04-29T22:56:13.939Z,27.70
2019-04-29T22:58:18.994Z,26.90
2019-04-29T23:00:28.005Z,26.37
2019-04-29T23:02:30.085Z,27.40
2019-04-29T23:04:35.134Z,28.63
2019-04-29T23:06:39.807Z,27.90
2019-04-29T23:08:45.010Z,28.53
2019-04-29T23:10:48.966Z,28.03
2019-04-29T23:12:54.047Z,29.82
2019-04-29T23:14:58.656Z,28.17
2019-04-29T23:17:06.107Z,29.72
2019-04-29T23:19:09.883Z,29.95
2019-04-29T23:21:36.053Z,30.82
2019-04-29T23:23:38.630Z,30.75
2019-04-29T23:25:53.276Z,32.60
2019-04-29T23:27:57.394Z,30.15
2019-04-29T23:30:01.592Z,30.43
2019-04-29T23:32:08.408Z,32.40
2019-04-29T23:34:12.582Z,32.05
2019-04-29T23:36:16.800Z,32.45
2019-04-29T23:38:21.004Z,32.08
2019-04-29T23:40:24.914Z,33.77
2019-04-29T23:42:29.123Z,32.70
2019-04-29T23:44:33.226Z,34.70
2019-04-29T23:46:37.343Z,34.45
2019-04-29T23:48:41.559Z,34.53
2019-04-29T23:50:49.690Z,35.38
2019-04-29T23:52:52.019Z,34.90
2019-04-29T23:54:55.934Z,34.53
2019-04-29T23:57:06.155Z,34.15
2019-04-29T23:59:16.925Z,34.15
